sensor_id;sensor_type;location;lat;lon;timestamp;temperature;humidity
55369;DHT22;41247;49.736;8.752;2023-03-01T00:01:09;-3.10;99.90
55369;DHT22;41247;49.736;8.752;2023-03-01T00:04:51;-3.10;99.90
55369;DHT22;41247;49.736;8.752;2023-03-01T00:08:32;-3.20;99.90
55369;DHT22;41247;49.736;8.752;2023-03-01T00:12:13;-3.20;99.90
55369;DHT22;41247;49.736;8.752;2023-03-01T00:15:54;-3.10;99.90
55369;DHT22;41247;49.736;8.752;2023-03-01T00:19:35;-3.10;99.90
55369;DHT22;41247;49.736;8.752;2023-03-01T00:23:15;-3.10;99.90
55369;DHT22;41247;49.736;8.752;2023-03-01T00:26:56;-3.00;99.90
55369;DHT22;41247;49.736;8.752;2023-03-01T00:30:36;-2.90;99.90
55369;DHT22;41247;49.736;8.752;2023-03-01T00:34:17;-2.90;99.90
55369;DHT22;41247;49.736;8.752;2023-03-01T00:37:58;-2.80;99.90
55369;DHT22;41247;49.736;8.752;2023-03-01T00:41:39;-2.70;99.90
55369;DHT22;41247;49.736;8.752;2023-03-01T00:45:20;-2.70;99.90
55369;DHT22;41247;49.736;8.752;2023-03-01T00:49:01;-2.60;99.90
55369;DHT22;41247;49.736;8.752;2023-03-01T00:52:41;-2.60;99.90
55369;DHT22;41247;49.736;8.752;2023-03-01T00:56:22;-2.60;99.90
55369;DHT22;41247;49.736;8.752;2023-03-01T01:00:05;-2.60;99.90
55369;DHT22;41247;49.736;8.752;2023-03-01T01:04:01;-2.60;99.90
55369;DHT22;41247;49.736;8.752;2023-03-01T01:07:45;-2.60;99.90
55369;DHT22;41247;49.736;8.752;2023-03-01T01:11:28;-2.50;99.90
55369;DHT22;41247;49.736;8.752;2023-03-01T01:15:09;-2.50;99.90
55369;DHT22;41247;49.736;8.752;2023-03-01T01:18:50;-2.50;99.90
55369;DHT22;41247;49.736;8.752;2023-03-01T01:22:32;-2.40;99.90
55369;DHT22;41247;49.736;8.752;2023-03-01T01:26:22;-2.30;99.90
55369;DHT22;41247;49.736;8.752;2023-03-01T01:30:04;-2.30;99.90
55369;DHT22;41247;49.736;8.752;2023-03-01T01:33:46;-2.20;99.90
55369;DHT22;41247;49.736;8.752;2023-03-01T01:37:26;-2.20;99.90
55369;DHT22;41247;49.736;8.752;2023-03-01T01:41:07;-2.20;99.90
55369;DHT22;41247;49.736;8.752;2023-03-01T01:44:48;-2.20;99.90
55369;DHT22;41247;49.736;8.752;2023-03-01T01:49:16;-2.20;99.90
55369;DHT22;41247;49.736;8.752;2023-03-01T01:52:57;-2.20;99.90
55369;DHT22;41247;49.736;8.752;2023-03-01T01:56:40;-2.20;99.90
55369;DHT22;41247;49.736;8.752;2023-03-01T02:00:28;-2.10;99.90
55369;DHT22;41247;49.736;8.752;2023-03-01T02:04:10;-2.10;99.90
55369;DHT22;41247;49.736;8.752;2023-03-01T02:07:52;-2.00;99.90
55369;DHT22;41247;49.736;8.752;2023-03-01T02:11:34;-2.00;99.90
55369;DHT22;41247;49.736;8.752;2023-03-01T02:15:14;-1.90;99.90
55369;DHT22;41247;49.736;8.752;2023-03-01T02:18:55;-1.80;99.90
55369;DHT22;41247;49.736;8.752;2023-03-01T02:22:37;-1.80;99.90
55369;DHT22;41247;49.736;8.752;2023-03-01T02:30:11;-1.80;99.90
55369;DHT22;41247;49.736;8.752;2023-03-01T02:33:53;-1.70;99.90
55369;DHT22;41247;49.736;8.752;2023-03-01T02:37:35;-1.70;99.90
55369;DHT22;41247;49.736;8.752;2023-03-01T02:41:17;-1.70;99.90
55369;DHT22;41247;49.736;8.752;2023-03-01T02:44:59;-1.60;99.90
55369;DHT22;41247;49.736;8.752;2023-03-01T02:48:42;-1.60;99.90
55369;DHT22;41247;49.736;8.752;2023-03-01T02:52:43;-1.60;99.90
55369;DHT22;41247;49.736;8.752;2023-03-01T02:56:26;-1.60;99.90
55369;DHT22;41247;49.736;8.752;2023-03-01T03:00:10;-1.60;99.90
55369;DHT22;41247;49.736;8.752;2023-03-01T03:04:00;-1.70;99.90
55369;DHT22;41247;49.736;8.752;2023-03-01T03:07:42;-1.70;99.90
55369;DHT22;41247;49.736;8.752;2023-03-01T03:11:25;-1.80;99.90
55369;DHT22;41247;49.736;8.752;2023-03-01T03:15:07;-1.80;99.90
55369;DHT22;41247;49.736;8.752;2023-03-01T03:18:49;-1.80;99.90
55369;DHT22;41247;49.736;8.752;2023-03-01T03:22:30;-1.80;99.90
55369;DHT22;41247;49.736;8.752;2023-03-01T03:26:11;-1.90;99.90
55369;DHT22;41247;49.736;8.752;2023-03-01T03:29:54;-1.90;99.90
55369;DHT22;41247;49.736;8.752;2023-03-01T03:33:35;-2.00;99.90
55369;DHT22;41247;49.736;8.752;2023-03-01T03:37:15;-2.10;99.90
55369;DHT22;41247;49.736;8.752;2023-03-01T03:41:05;-2.10;99.90
55369;DHT22;41247;49.736;8.752;2023-03-01T03:44:47;-2.20;99.90
55369;DHT22;41247;49.736;8.752;2023-03-01T03:48:28;-2.30;99.90
55369;DHT22;41247;49.736;8.752;2023-03-01T03:52:08;-2.30;99.90
55369;DHT22;41247;49.736;8.752;2023-03-01T03:55:49;-2.30;99.90
55369;DHT22;41247;49.736;8.752;2023-03-01T03:59:29;-2.40;99.90
55369;DHT22;41247;49.736;8.752;2023-03-01T04:03:12;-2.40;99.90
55369;DHT22;41247;49.736;8.752;2023-03-01T04:06:54;-2.50;99.90
55369;DHT22;41247;49.736;8.752;2023-03-01T04:10:40;-2.50;99.90
55369;DHT22;41247;49.736;8.752;2023-03-01T04:14:24;-2.50;99.90
55369;DHT22;41247;49.736;8.752;2023-03-01T04:18:05;-2.50;99.90
55369;DHT22;41247;49.736;8.752;2023-03-01T04:21:46;-2.40;99.90
55369;DHT22;41247;49.736;8.752;2023-03-01T04:25:27;-2.40;99.90
55369;DHT22;41247;49.736;8.752;2023-03-01T04:29:08;-2.40;99.90
55369;DHT22;41247;49.736;8.752;2023-03-01T04:32:48;-2.40;99.90
55369;DHT22;41247;49.736;8.752;2023-03-01T04:36:29;-2.30;99.90
55369;DHT22;41247;49.736;8.752;2023-03-01T04:40:10;-2.30;99.90
55369;DHT22;41247;49.736;8.752;2023-03-01T04:43:51;-2.30;99.90
55369;DHT22;41247;49.736;8.752;2023-03-01T04:47:31;-2.30;99.90
55369;DHT22;41247;49.736;8.752;2023-03-01T04:51:12;-2.20;99.90
55369;DHT22;41247;49.736;8.752;2023-03-01T04:54:53;-2.20;99.90
55369;DHT22;41247;49.736;8.752;2023-03-01T04:58:33;-2.20;99.90
55369;DHT22;41247;49.736;8.752;2023-03-01T05:02:14;-2.10;99.90
55369;DHT22;41247;49.736;8.752;2023-03-01T05:05:58;-2.10;99.90
55369;DHT22;41247;49.736;8.752;2023-03-01T05:09:39;-2.10;99.90
55369;DHT22;41247;49.736;8.752;2023-03-01T05:13:20;-2.10;99.90
55369;DHT22;41247;49.736;8.752;2023-03-01T05:17:01;-2.00;99.90
55369;DHT22;41247;49.736;8.752;2023-03-01T05:20:42;-2.10;99.90
55369;DHT22;41247;49.736;8.752;2023-03-01T05:24:22;-2.10;99.90
55369;DHT22;41247;49.736;8.752;2023-03-01T05:28:03;-2.10;99.90
55369;DHT22;41247;49.736;8.752;2023-03-01T05:31:44;-2.10;99.90
55369;DHT22;41247;49.736;8.752;2023-03-01T05:35:25;-2.20;99.90
55369;DHT22;41247;49.736;8.752;2023-03-01T05:39:05;-2.20;99.90
55369;DHT22;41247;49.736;8.752;2023-03-01T05:42:48;-2.20;99.90
55369;DHT22;41247;49.736;8.752;2023-03-01T05:46:30;-2.30;99.90
55369;DHT22;41247;49.736;8.752;2023-03-01T05:50:16;-2.40;99.90
55369;DHT22;41247;49.736;8.752;2023-03-01T05:53:58;-2.50;99.90
55369;DHT22;41247;49.736;8.752;2023-03-01T05:57:38;-2.50;99.90
55369;DHT22;41247;49.736;8.752;2023-03-01T06:01:19;-2.60;99.90
55369;DHT22;41247;49.736;8.752;2023-03-01T06:04:59;-2.70;99.90
55369;DHT22;41247;49.736;8.752;2023-03-01T06:08:40;-2.70;99.90
55369;DHT22;41247;49.736;8.752;2023-03-01T06:12:21;-2.70;99.90
55369;DHT22;41247;49.736;8.752;2023-03-01T06:16:04;-2.80;99.90
55369;DHT22;41247;49.736;8.752;2023-03-01T06:19:46;-2.80;99.90
55369;DHT22;41247;49.736;8.752;2023-03-01T06:23:27;-2.80;99.90
55369;DHT22;41247;49.736;8.752;2023-03-01T06:27:07;-2.80;99.90
55369;DHT22;41247;49.736;8.752;2023-03-01T06:30:49;-2.80;99.90
55369;DHT22;41247;49.736;8.752;2023-03-01T06:34:30;-2.80;99.90
55369;DHT22;41247;49.736;8.752;2023-03-01T06:38:11;-2.80;99.90
55369;DHT22;41247;49.736;8.752;2023-03-01T06:41:52;-2.70;99.90
55369;DHT22;41247;49.736;8.752;2023-03-01T06:45:33;-2.70;99.90
55369;DHT22;41247;49.736;8.752;2023-03-01T06:49:15;-2.60;99.90
55369;DHT22;41247;49.736;8.752;2023-03-01T06:52:56;-2.50;99.90
55369;DHT22;41247;49.736;8.752;2023-03-01T06:56:37;-2.40;99.90
55369;DHT22;41247;49.736;8.752;2023-03-01T07:00:18;-2.40;99.90
55369;DHT22;41247;49.736;8.752;2023-03-01T07:04:01;-2.30;99.90
55369;DHT22;41247;49.736;8.752;2023-03-01T07:07:42;-2.20;99.90
55369;DHT22;41247;49.736;8.752;2023-03-01T07:11:23;-2.10;99.90
55369;DHT22;41247;49.736;8.752;2023-03-01T07:15:04;-2.00;99.90
55369;DHT22;41247;49.736;8.752;2023-03-01T07:18:45;-1.90;99.90
55369;DHT22;41247;49.736;8.752;2023-03-01T07:22:26;-1.70;99.90
55369;DHT22;41247;49.736;8.752;2023-03-01T07:26:06;-1.60;99.90
55369;DHT22;41247;49.736;8.752;2023-03-01T07:29:47;-1.50;99.90
55369;DHT22;41247;49.736;8.752;2023-03-01T07:33:28;-1.40;99.90
55369;DHT22;41247;49.736;8.752;2023-03-01T07:37:08;-1.30;99.90
55369;DHT22;41247;49.736;8.752;2023-03-01T07:40:49;-1.20;99.90
55369;DHT22;41247;49.736;8.752;2023-03-01T07:44:30;-1.20;99.90
55369;DHT22;41247;49.736;8.752;2023-03-01T07:48:10;-1.10;99.90
55369;DHT22;41247;49.736;8.752;2023-03-01T07:51:51;-1.10;99.90
55369;DHT22;41247;49.736;8.752;2023-03-01T07:55:32;-1.00;99.90
55369;DHT22;41247;49.736;8.752;2023-03-01T07:59:12;-1.00;99.90
55369;DHT22;41247;49.736;8.752;2023-03-01T08:02:53;-1.00;99.90
55369;DHT22;41247;49.736;8.752;2023-03-01T08:06:35;-0.90;99.90
55369;DHT22;41247;49.736;8.752;2023-03-01T08:10:16;-0.90;99.90
55369;DHT22;41247;49.736;8.752;2023-03-01T08:13:57;-0.90;99.90
55369;DHT22;41247;49.736;8.752;2023-03-01T08:17:37;-0.80;99.90
55369;DHT22;41247;49.736;8.752;2023-03-01T08:21:18;-0.80;99.90
55369;DHT22;41247;49.736;8.752;2023-03-01T08:24:59;-0.70;99.90
55369;DHT22;41247;49.736;8.752;2023-03-01T08:28:40;-0.70;99.90
55369;DHT22;41247;49.736;8.752;2023-03-01T08:32:21;-0.70;99.90
55369;DHT22;41247;49.736;8.752;2023-03-01T08:36:03;-0.60;99.90
55369;DHT22;41247;49.736;8.752;2023-03-01T08:39:46;-0.50;99.90
55369;DHT22;41247;49.736;8.752;2023-03-01T08:43:26;-0.40;99.90
55369;DHT22;41247;49.736;8.752;2023-03-01T08:47:07;-0.40;99.90
55369;DHT22;41247;49.736;8.752;2023-03-01T08:50:48;-0.30;99.90
55369;DHT22;41247;49.736;8.752;2023-03-01T08:54:28;-0.30;99.90
55369;DHT22;41247;49.736;8.752;2023-03-01T08:58:09;-0.20;99.90
55369;DHT22;41247;49.736;8.752;2023-03-01T09:01:49;0.00;99.90
55369;DHT22;41247;49.736;8.752;2023-03-01T09:05:34;0.10;99.90
55369;DHT22;41247;49.736;8.752;2023-03-01T09:09:17;0.30;99.90
55369;DHT22;41247;49.736;8.752;2023-03-01T09:12:57;0.40;99.90
55369;DHT22;41247;49.736;8.752;2023-03-01T09:16:38;0.50;99.90
55369;DHT22;41247;49.736;8.752;2023-03-01T09:20:19;0.70;99.90
55369;DHT22;41247;49.736;8.752;2023-03-01T09:23:59;0.80;99.90
55369;DHT22;41247;49.736;8.752;2023-03-01T09:27:40;0.90;99.90
55369;DHT22;41247;49.736;8.752;2023-03-01T09:31:22;1.00;99.90
55369;DHT22;41247;49.736;8.752;2023-03-01T09:35:05;1.20;99.90
55369;DHT22;41247;49.736;8.752;2023-03-01T09:38:46;1.30;99.90
55369;DHT22;41247;49.736;8.752;2023-03-01T09:42:29;1.50;99.90
55369;DHT22;41247;49.736;8.752;2023-03-01T09:46:14;1.60;99.90
55369;DHT22;41247;49.736;8.752;2023-03-01T09:50:00;1.80;99.90
55369;DHT22;41247;49.736;8.752;2023-03-01T09:53:42;1.90;99.90
55369;DHT22;41247;49.736;8.752;2023-03-01T09:57:30;2.10;99.90
55369;DHT22;41247;49.736;8.752;2023-03-01T10:01:32;2.10;99.90
55369;DHT22;41247;49.736;8.752;2023-03-01T10:05:33;2.30;99.90
55369;DHT22;41247;49.736;8.752;2023-03-01T10:09:17;2.40;99.90
55369;DHT22;41247;49.736;8.752;2023-03-01T10:13:03;2.50;99.90
55369;DHT22;41247;49.736;8.752;2023-03-01T10:17:15;2.60;99.90
55369;DHT22;41247;49.736;8.752;2023-03-01T10:21:28;2.70;99.90
55369;DHT22;41247;49.736;8.752;2023-03-01T10:25:13;2.80;99.90
55369;DHT22;41247;49.736;8.752;2023-03-01T10:29:09;3.00;99.90
55369;DHT22;41247;49.736;8.752;2023-03-01T10:32:52;3.00;99.90
55369;DHT22;41247;49.736;8.752;2023-03-01T10:36:33;3.10;99.90
55369;DHT22;41247;49.736;8.752;2023-03-01T10:40:14;3.20;99.90
55369;DHT22;41247;49.736;8.752;2023-03-01T10:43:58;3.30;99.90
55369;DHT22;41247;49.736;8.752;2023-03-01T10:47:39;3.40;99.90
55369;DHT22;41247;49.736;8.752;2023-03-01T10:51:19;3.40;99.90
55369;DHT22;41247;49.736;8.752;2023-03-01T10:58:59;3.50;99.90
55369;DHT22;41247;49.736;8.752;2023-03-01T11:02:39;3.60;99.90
55369;DHT22;41247;49.736;8.752;2023-03-01T11:06:21;3.80;99.90
55369;DHT22;41247;49.736;8.752;2023-03-01T11:10:11;3.90;99.90
55369;DHT22;41247;49.736;8.752;2023-03-01T11:17:43;4.10;99.90
55369;DHT22;41247;49.736;8.752;2023-03-01T11:21:25;4.10;99.90
55369;DHT22;41247;49.736;8.752;2023-03-01T11:25:11;4.20;99.90
55369;DHT22;41247;49.736;8.752;2023-03-01T11:28:55;4.30;99.90
55369;DHT22;41247;49.736;8.752;2023-03-01T11:32:42;4.30;99.90
55369;DHT22;41247;49.736;8.752;2023-03-01T11:36:35;4.50;99.90
55369;DHT22;41247;49.736;8.752;2023-03-01T11:40:32;4.60;99.90
55369;DHT22;41247;49.736;8.752;2023-03-01T11:44:25;4.70;99.90
55369;DHT22;41247;49.736;8.752;2023-03-01T11:48:27;4.80;99.90
55369;DHT22;41247;49.736;8.752;2023-03-01T11:52:31;4.90;99.90
55369;DHT22;41247;49.736;8.752;2023-03-01T11:56:35;5.10;99.90
55369;DHT22;41247;49.736;8.752;2023-03-01T12:00:57;5.20;99.90
55369;DHT22;41247;49.736;8.752;2023-03-01T12:13:54;5.60;99.90
55369;DHT22;41247;49.736;8.752;2023-03-01T12:17:57;5.90;99.90
55369;DHT22;41247;49.736;8.752;2023-03-01T12:22:12;6.00;99.90
55369;DHT22;41247;49.736;8.752;2023-03-01T12:30:52;6.30;99.90
55369;DHT22;41247;49.736;8.752;2023-03-01T12:38:57;6.50;99.90
55369;DHT22;41247;49.736;8.752;2023-03-01T12:47:52;6.60;99.90
55369;DHT22;41247;49.736;8.752;2023-03-01T12:51:40;6.70;99.90
55369;DHT22;41247;49.736;8.752;2023-03-01T12:55:35;6.80;99.90
55369;DHT22;41247;49.736;8.752;2023-03-01T12:59:36;7.00;99.90
55369;DHT22;41247;49.736;8.752;2023-03-01T13:03:28;7.10;99.90
55369;DHT22;41247;49.736;8.752;2023-03-01T13:07:41;7.20;99.90
55369;DHT22;41247;49.736;8.752;2023-03-01T13:11:24;7.20;99.90
55369;DHT22;41247;49.736;8.752;2023-03-01T13:19:17;7.50;99.90
55369;DHT22;41247;49.736;8.752;2023-03-01T13:27:21;7.60;99.90
55369;DHT22;41247;49.736;8.752;2023-03-01T13:31:05;7.70;99.90
55369;DHT22;41247;49.736;8.752;2023-03-01T13:34:49;7.90;99.90
55369;DHT22;41247;49.736;8.752;2023-03-01T13:42:39;8.40;99.90
55369;DHT22;41247;49.736;8.752;2023-03-01T13:46:23;8.60;99.90
55369;DHT22;41247;49.736;8.752;2023-03-01T13:50:04;8.60;99.90
55369;DHT22;41247;49.736;8.752;2023-03-01T13:53:47;8.60;99.90
55369;DHT22;41247;49.736;8.752;2023-03-01T13:57:33;8.60;99.90
55369;DHT22;41247;49.736;8.752;2023-03-01T14:05:09;8.70;99.90
55369;DHT22;41247;49.736;8.752;2023-03-01T14:09:02;8.80;99.90
55369;DHT22;41247;49.736;8.752;2023-03-01T14:12:59;8.70;99.90
55369;DHT22;41247;49.736;8.752;2023-03-01T14:21:08;8.50;99.90
55369;DHT22;41247;49.736;8.752;2023-03-01T14:24:51;8.50;99.90
55369;DHT22;41247;49.736;8.752;2023-03-01T14:28:43;8.60;99.90
55369;DHT22;41247;49.736;8.752;2023-03-01T14:32:31;8.60;99.90
55369;DHT22;41247;49.736;8.752;2023-03-01T14:36:13;8.70;99.90
55369;DHT22;41247;49.736;8.752;2023-03-01T14:39:54;8.90;99.90
55369;DHT22;41247;49.736;8.752;2023-03-01T14:43:37;9.20;99.90
55369;DHT22;41247;49.736;8.752;2023-03-01T14:47:32;9.30;99.90
55369;DHT22;41247;49.736;8.752;2023-03-01T14:51:14;10.00;99.90
55369;DHT22;41247;49.736;8.752;2023-03-01T14:54:55;11.20;99.90
55369;DHT22;41247;49.736;8.752;2023-03-01T14:58:37;12.60;99.90
55369;DHT22;41247;49.736;8.752;2023-03-01T15:02:21;14.20;99.90
55369;DHT22;41247;49.736;8.752;2023-03-01T15:06:05;16.10;99.90
55369;DHT22;41247;49.736;8.752;2023-03-01T15:09:46;16.70;99.90
55369;DHT22;41247;49.736;8.752;2023-03-01T15:13:34;17.40;99.90
55369;DHT22;41247;49.736;8.752;2023-03-01T15:17:36;17.40;99.90
55369;DHT22;41247;49.736;8.752;2023-03-01T15:21:21;17.60;99.90
55369;DHT22;41247;49.736;8.752;2023-03-01T15:25:27;18.20;99.10
55369;DHT22;41247;49.736;8.752;2023-03-01T15:29:19;19.00;97.30
55369;DHT22;41247;49.736;8.752;2023-03-01T15:33:20;18.40;95.50
55369;DHT22;41247;49.736;8.752;2023-03-01T15:37:39;16.40;97.60
55369;DHT22;41247;49.736;8.752;2023-03-01T15:45:19;13.70;99.90
55369;DHT22;41247;49.736;8.752;2023-03-01T15:49:04;13.70;99.90
55369;DHT22;41247;49.736;8.752;2023-03-01T15:52:58;12.80;99.90
55369;DHT22;41247;49.736;8.752;2023-03-01T15:56:40;12.10;99.90
55369;DHT22;41247;49.736;8.752;2023-03-01T16:00:21;11.60;99.90
55369;DHT22;41247;49.736;8.752;2023-03-01T16:04:01;10.60;99.90
55369;DHT22;41247;49.736;8.752;2023-03-01T16:07:42;9.70;99.90
55369;DHT22;41247;49.736;8.752;2023-03-01T16:11:23;9.00;99.90
55369;DHT22;41247;49.736;8.752;2023-03-01T16:15:04;8.60;99.90
55369;DHT22;41247;49.736;8.752;2023-03-01T16:18:46;8.30;99.90
55369;DHT22;41247;49.736;8.752;2023-03-01T16:22:27;8.30;99.90
55369;DHT22;41247;49.736;8.752;2023-03-01T16:26:08;8.30;99.90
55369;DHT22;41247;49.736;8.752;2023-03-01T16:29:48;10.00;99.90
55369;DHT22;41247;49.736;8.752;2023-03-01T16:33:29;11.50;99.90
55369;DHT22;41247;49.736;8.752;2023-03-01T16:37:09;12.00;99.90
55369;DHT22;41247;49.736;8.752;2023-03-01T16:40:51;10.30;99.90
55369;DHT22;41247;49.736;8.752;2023-03-01T16:44:32;8.60;99.90
55369;DHT22;41247;49.736;8.752;2023-03-01T16:48:13;7.50;99.90
55369;DHT22;41247;49.736;8.752;2023-03-01T16:51:53;6.70;99.90
55369;DHT22;41247;49.736;8.752;2023-03-01T16:55:34;6.10;99.90
55369;DHT22;41247;49.736;8.752;2023-03-01T16:59:15;5.70;99.90
55369;DHT22;41247;49.736;8.752;2023-03-01T17:02:57;5.40;99.90
55369;DHT22;41247;49.736;8.752;2023-03-01T17:06:38;5.10;99.90
55369;DHT22;41247;49.736;8.752;2023-03-01T17:10:18;4.80;99.90
55369;DHT22;41247;49.736;8.752;2023-03-01T17:13:59;4.60;99.90
55369;DHT22;41247;49.736;8.752;2023-03-01T17:17:39;4.40;99.90
55369;DHT22;41247;49.736;8.752;2023-03-01T17:21:20;4.10;99.90
55369;DHT22;41247;49.736;8.752;2023-03-01T17:25:01;3.90;99.90
55369;DHT22;41247;49.736;8.752;2023-03-01T17:28:41;3.70;99.90
55369;DHT22;41247;49.736;8.752;2023-03-01T17:32:22;3.50;99.90
55369;DHT22;41247;49.736;8.752;2023-03-01T17:36:03;3.30;99.90
55369;DHT22;41247;49.736;8.752;2023-03-01T17:39:43;3.00;99.90
55369;DHT22;41247;49.736;8.752;2023-03-01T17:43:24;2.80;99.90
55369;DHT22;41247;49.736;8.752;2023-03-01T17:47:05;2.70;99.90
55369;DHT22;41247;49.736;8.752;2023-03-01T17:50:46;2.60;99.90
55369;DHT22;41247;49.736;8.752;2023-03-01T17:54:26;2.50;99.90
55369;DHT22;41247;49.736;8.752;2023-03-01T17:58:09;2.50;99.90
55369;DHT22;41247;49.736;8.752;2023-03-01T18:01:52;2.40;99.90
55369;DHT22;41247;49.736;8.752;2023-03-01T18:05:34;2.20;99.90
55369;DHT22;41247;49.736;8.752;2023-03-01T18:09:15;2.20;99.90
55369;DHT22;41247;49.736;8.752;2023-03-01T18:12:56;2.10;99.90
55369;DHT22;41247;49.736;8.752;2023-03-01T18:16:36;2.00;99.90
55369;DHT22;41247;49.736;8.752;2023-03-01T18:20:17;1.90;99.90
55369;DHT22;41247;49.736;8.752;2023-03-01T18:23:58;1.80;99.90
55369;DHT22;41247;49.736;8.752;2023-03-01T18:27:38;1.80;99.90
55369;DHT22;41247;49.736;8.752;2023-03-01T18:31:20;1.80;99.90
55369;DHT22;41247;49.736;8.752;2023-03-01T18:35:01;1.70;99.90
55369;DHT22;41247;49.736;8.752;2023-03-01T18:38:41;1.70;99.90
55369;DHT22;41247;49.736;8.752;2023-03-01T18:42:22;1.70;99.90
55369;DHT22;41247;49.736;8.752;2023-03-01T18:46:03;1.60;99.90
55369;DHT22;41247;49.736;8.752;2023-03-01T18:49:43;1.60;99.90
55369;DHT22;41247;49.736;8.752;2023-03-01T18:53:24;1.50;99.90
55369;DHT22;41247;49.736;8.752;2023-03-01T18:57:05;1.50;99.90
55369;DHT22;41247;49.736;8.752;2023-03-01T19:00:45;1.40;99.90
55369;DHT22;41247;49.736;8.752;2023-03-01T19:04:26;1.40;99.90
55369;DHT22;41247;49.736;8.752;2023-03-01T19:08:06;1.40;99.90
55369;DHT22;41247;49.736;8.752;2023-03-01T19:11:47;1.30;99.90
55369;DHT22;41247;49.736;8.752;2023-03-01T19:15:27;1.30;99.90
55369;DHT22;41247;49.736;8.752;2023-03-01T19:19:09;1.30;99.90
55369;DHT22;41247;49.736;8.752;2023-03-01T19:22:49;1.30;99.90
55369;DHT22;41247;49.736;8.752;2023-03-01T19:26:30;1.20;99.90
55369;DHT22;41247;49.736;8.752;2023-03-01T19:30:11;1.20;99.90
55369;DHT22;41247;49.736;8.752;2023-03-01T19:33:53;1.20;99.90
55369;DHT22;41247;49.736;8.752;2023-03-01T19:37:34;1.20;99.90
55369;DHT22;41247;49.736;8.752;2023-03-01T19:41:16;1.10;99.90
55369;DHT22;41247;49.736;8.752;2023-03-01T19:44:57;1.00;99.90
55369;DHT22;41247;49.736;8.752;2023-03-01T19:48:37;1.00;99.90
55369;DHT22;41247;49.736;8.752;2023-03-01T19:52:18;1.00;99.90
55369;DHT22;41247;49.736;8.752;2023-03-01T19:56:00;0.90;99.90
55369;DHT22;41247;49.736;8.752;2023-03-01T19:59:41;0.90;99.90
55369;DHT22;41247;49.736;8.752;2023-03-01T20:03:21;0.90;99.90
55369;DHT22;41247;49.736;8.752;2023-03-01T20:07:02;0.90;99.90
55369;DHT22;41247;49.736;8.752;2023-03-01T20:10:42;0.80;99.90
55369;DHT22;41247;49.736;8.752;2023-03-01T20:14:23;0.70;99.90
55369;DHT22;41247;49.736;8.752;2023-03-01T20:18:04;0.70;99.90
55369;DHT22;41247;49.736;8.752;2023-03-01T20:21:45;0.70;99.90
55369;DHT22;41247;49.736;8.752;2023-03-01T20:25:25;0.70;99.90
55369;DHT22;41247;49.736;8.752;2023-03-01T20:29:06;0.70;99.90
55369;DHT22;41247;49.736;8.752;2023-03-01T20:32:47;0.70;99.90
55369;DHT22;41247;49.736;8.752;2023-03-01T20:36:27;0.60;99.90
55369;DHT22;41247;49.736;8.752;2023-03-01T20:40:09;0.60;99.90
55369;DHT22;41247;49.736;8.752;2023-03-01T20:43:50;0.60;99.90
55369;DHT22;41247;49.736;8.752;2023-03-01T20:47:30;0.60;99.90
55369;DHT22;41247;49.736;8.752;2023-03-01T20:51:13;0.60;99.90
55369;DHT22;41247;49.736;8.752;2023-03-01T20:54:54;0.60;99.90
55369;DHT22;41247;49.736;8.752;2023-03-01T20:58:34;0.50;99.90
55369;DHT22;41247;49.736;8.752;2023-03-01T21:02:15;0.40;99.90
55369;DHT22;41247;49.736;8.752;2023-03-01T21:05:57;0.40;99.90
55369;DHT22;41247;49.736;8.752;2023-03-01T21:09:38;0.30;99.90
55369;DHT22;41247;49.736;8.752;2023-03-01T21:13:20;0.30;99.90
55369;DHT22;41247;49.736;8.752;2023-03-01T21:17:01;0.20;99.90
55369;DHT22;41247;49.736;8.752;2023-03-01T21:20:42;0.20;99.90
55369;DHT22;41247;49.736;8.752;2023-03-01T21:24:23;0.10;99.90
55369;DHT22;41247;49.736;8.752;2023-03-01T21:28:03;0.10;99.90
55369;DHT22;41247;49.736;8.752;2023-03-01T21:31:44;0.20;99.90
55369;DHT22;41247;49.736;8.752;2023-03-01T21:35:24;0.30;99.90
55369;DHT22;41247;49.736;8.752;2023-03-01T21:39:05;0.50;99.90
55369;DHT22;41247;49.736;8.752;2023-03-01T21:42:46;0.60;99.90
55369;DHT22;41247;49.736;8.752;2023-03-01T21:46:30;0.60;99.90
55369;DHT22;41247;49.736;8.752;2023-03-01T21:50:12;0.60;99.90
55369;DHT22;41247;49.736;8.752;2023-03-01T21:53:54;0.70;99.90
55369;DHT22;41247;49.736;8.752;2023-03-01T21:57:35;0.80;99.90
55369;DHT22;41247;49.736;8.752;2023-03-01T22:01:18;0.80;99.90
55369;DHT22;41247;49.736;8.752;2023-03-01T22:05:00;0.80;99.90
55369;DHT22;41247;49.736;8.752;2023-03-01T22:08:41;0.70;99.90
55369;DHT22;41247;49.736;8.752;2023-03-01T22:12:21;0.60;99.90
55369;DHT22;41247;49.736;8.752;2023-03-01T22:16:02;0.40;99.90
55369;DHT22;41247;49.736;8.752;2023-03-01T22:19:43;0.30;99.90
55369;DHT22;41247;49.736;8.752;2023-03-01T22:23:23;0.20;99.90
55369;DHT22;41247;49.736;8.752;2023-03-01T22:27:04;0.10;99.90
55369;DHT22;41247;49.736;8.752;2023-03-01T22:30:44;0.00;99.90
55369;DHT22;41247;49.736;8.752;2023-03-01T22:34:25;0.00;99.90
55369;DHT22;41247;49.736;8.752;2023-03-01T22:38:06;0.00;99.90
55369;DHT22;41247;49.736;8.752;2023-03-01T22:41:48;-0.10;99.90
55369;DHT22;41247;49.736;8.752;2023-03-01T22:45:30;-0.20;99.90
55369;DHT22;41247;49.736;8.752;2023-03-01T22:49:11;-0.20;99.90
55369;DHT22;41247;49.736;8.752;2023-03-01T22:52:51;-0.30;99.90
55369;DHT22;41247;49.736;8.752;2023-03-01T22:56:34;-0.30;99.90
55369;DHT22;41247;49.736;8.752;2023-03-01T23:00:15;-0.30;99.90
55369;DHT22;41247;49.736;8.752;2023-03-01T23:03:57;-0.30;99.90
55369;DHT22;41247;49.736;8.752;2023-03-01T23:07:37;-0.30;99.90
55369;DHT22;41247;49.736;8.752;2023-03-01T23:11:19;-0.30;99.90
55369;DHT22;41247;49.736;8.752;2023-03-01T23:15:00;-0.40;99.90
55369;DHT22;41247;49.736;8.752;2023-03-01T23:18:41;-0.50;99.90
55369;DHT22;41247;49.736;8.752;2023-03-01T23:22:22;-0.60;99.90
55369;DHT22;41247;49.736;8.752;2023-03-01T23:26:03;-0.70;99.90
55369;DHT22;41247;49.736;8.752;2023-03-01T23:29:45;-0.70;99.90
55369;DHT22;41247;49.736;8.752;2023-03-01T23:33:27;-0.80;99.90
55369;DHT22;41247;49.736;8.752;2023-03-01T23:37:08;-0.90;99.90
55369;DHT22;41247;49.736;8.752;2023-03-01T23:40:49;-1.00;99.90
55369;DHT22;41247;49.736;8.752;2023-03-01T23:44:30;-1.00;99.90
55369;DHT22;41247;49.736;8.752;2023-03-01T23:48:14;-1.00;99.90
55369;DHT22;41247;49.736;8.752;2023-03-01T23:51:54;-1.00;99.90
55369;DHT22;41247;49.736;8.752;2023-03-01T23:55:36;-1.00;99.90
55369;DHT22;41247;49.736;8.752;2023-03-01T23:59:43;-0.90;99.90
